createdAt,value
2018-06-17T00:02:16.854Z,99.90
2018-06-17T00:04:50.743Z,99.90
2018-06-17T00:07:24.592Z,99.90
2018-06-17T00:09:58.628Z,99.90
2018-06-17T00:12:32.438Z,99.90
2018-06-17T00:15:06.348Z,99.90
2018-06-17T00:17:40.164Z,99.90
2018-06-17T00:20:14.068Z,99.90
2018-06-17T00:22:47.872Z,99.90
2018-06-17T00:25:21.724Z,99.90
2018-06-17T00:27:55.539Z,99.90
2018-06-17T00:30:29.333Z,99.90
2018-06-17T00:33:03.209Z,99.90
2018-06-17T00:35:37.058Z,99.90
2018-06-17T00:38:10.838Z,99.90
2018-06-17T00:40:44.669Z,99.90
2018-06-17T00:43:19.383Z,99.90
2018-06-17T00:45:53.405Z,99.90
2018-06-17T00:48:27.247Z,99.90
2018-06-17T00:51:01.134Z,99.90
2018-06-17T00:53:34.963Z,99.90
2018-06-17T00:56:08.793Z,99.90
2018-06-17T00:58:42.498Z,99.90
2018-06-17T01:01:16.352Z,99.90
2018-06-17T01:03:50.157Z,99.90
2018-06-17T01:06:24.056Z,99.90
2018-06-17T01:08:57.839Z,99.90
2018-06-17T01:11:31.697Z,99.90
2018-06-17T01:14:05.459Z,99.90
2018-06-17T01:16:39.347Z,99.90
2018-06-17T01:19:13.080Z,99.90
2018-06-17T01:21:46.859Z,99.90
2018-06-17T01:24:20.703Z,99.90
2018-06-17T01:26:54.445Z,99.90
2018-06-17T01:29:28.196Z,99.90
2018-06-17T01:34:35.042Z,99.90
2018-06-17T01:37:08.991Z,99.90
2018-06-17T01:39:42.717Z,99.90
2018-06-17T01:42:16.565Z,99.90
2018-06-17T01:44:50.306Z,99.90
2018-06-17T01:47:24.079Z,99.90
2018-06-17T01:49:57.897Z,99.90
2018-06-17T01:52:31.622Z,99.90
2018-06-17T01:55:05.436Z,99.90
2018-06-17T01:57:39.238Z,99.90
2018-06-17T02:00:14.992Z,99.90
2018-06-17T02:02:49.093Z,99.90
2018-06-17T02:06:25.373Z,99.90
2018-06-17T02:09:03.857Z,99.90
2018-06-17T02:11:42.018Z,99.90
2018-06-17T02:14:20.391Z,99.90
2018-06-17T02:16:54.279Z,99.90
2018-06-17T02:19:28.221Z,99.90
2018-06-17T02:22:02.047Z,99.90
2018-06-17T02:24:36.207Z,99.90
2018-06-17T02:27:11.352Z,99.90
2018-06-17T02:29:47.193Z,99.90
2018-06-17T02:32:23.184Z,99.90
2018-06-17T02:35:00.698Z,99.90
2018-06-17T02:37:37.365Z,99.90
2018-06-17T02:40:15.807Z,99.90
2018-06-17T02:42:53.963Z,99.90
2018-06-17T02:45:34.740Z,99.90
2018-06-17T02:48:15.521Z,99.90
2018-06-17T02:50:56.596Z,99.90
2018-06-17T02:53:38.247Z,99.90
2018-06-17T02:56:14.539Z,99.90
2018-06-17T02:58:50.949Z,99.90
2018-06-17T03:01:27.541Z,99.90
2018-06-17T03:04:03.423Z,99.90
2018-06-17T03:06:39.329Z,99.90
2018-06-17T03:09:14.011Z,99.90
2018-06-17T03:11:47.751Z,99.90
2018-06-17T03:14:21.586Z,99.90
2018-06-17T03:16:55.528Z,99.90
2018-06-17T03:19:29.272Z,99.90
2018-06-17T03:22:03.143Z,99.90
2018-06-17T03:24:41.802Z,99.90
2018-06-17T03:27:20.206Z,99.90
2018-06-17T03:31:01.492Z,99.90
2018-06-17T03:33:39.610Z,99.90
2018-06-17T03:36:13.743Z,99.90
2018-06-17T03:38:47.677Z,99.90
2018-06-17T03:41:21.460Z,99.90
2018-06-17T03:43:55.315Z,99.90
2018-06-17T03:46:29.164Z,99.90
2018-06-17T03:49:02.959Z,99.90
2018-06-17T03:51:36.683Z,99.90
2018-06-17T03:54:10.601Z,99.90
2018-06-17T03:56:44.369Z,99.90
2018-06-17T03:59:18.245Z,99.90
2018-06-17T04:01:52.021Z,99.90
2018-06-17T04:04:25.776Z,99.90
2018-06-17T04:06:59.492Z,99.90
2018-06-17T04:09:33.265Z,99.90
2018-06-17T04:12:07.028Z,99.90
2018-06-17T04:14:40.989Z,99.90
2018-06-17T04:17:16.608Z,99.90
2018-06-17T04:19:50.388Z,99.90
2018-06-17T04:22:24.180Z,99.90
2018-06-17T04:24:58.007Z,99.90
2018-06-17T04:27:31.816Z,99.90
2018-06-17T04:30:06.171Z,99.90
2018-06-17T04:32:42.397Z,99.90
2018-06-17T04:35:16.122Z,99.90
2018-06-17T04:37:49.844Z,99.90
2018-06-17T04:40:23.524Z,99.90
2018-06-17T04:42:57.323Z,99.90
2018-06-17T04:45:31.012Z,99.90
2018-06-17T04:48:04.702Z,99.90
2018-06-17T04:50:38.402Z,99.90
2018-06-17T04:53:12.190Z,99.90
2018-06-17T04:55:46.104Z,99.90
2018-06-17T04:58:19.926Z,99.90
2018-06-17T05:00:53.722Z,99.90
2018-06-17T05:03:27.540Z,99.90
2018-06-17T05:06:01.369Z,99.90
2018-06-17T05:08:35.141Z,99.90
2018-06-17T05:11:08.976Z,99.90
2018-06-17T05:13:42.803Z,99.90
2018-06-17T05:16:16.663Z,99.90
2018-06-17T05:18:50.499Z,99.90
2018-06-17T05:21:24.342Z,99.90
2018-06-17T05:23:58.231Z,99.90
2018-06-17T05:26:32.137Z,99.90
2018-06-17T05:29:05.970Z,99.90
2018-06-17T05:31:39.749Z,99.90
2018-06-17T05:34:13.638Z,99.90
2018-06-17T05:36:47.411Z,99.90
2018-06-17T05:39:21.378Z,99.90
2018-06-17T05:41:55.220Z,99.90
2018-06-17T05:44:29.105Z,99.90
2018-06-17T05:47:02.993Z,99.90
2018-06-17T05:49:36.854Z,99.90
2018-06-17T05:52:10.645Z,99.90
2018-06-17T05:54:44.577Z,99.90
2018-06-17T05:57:18.436Z,99.90
2018-06-17T05:59:52.365Z,99.90
2018-06-17T06:02:26.179Z,99.90
2018-06-17T06:05:00.047Z,99.90
2018-06-17T06:07:33.860Z,99.10
2018-06-17T06:10:07.850Z,99.90
2018-06-17T06:12:41.673Z,99.90
2018-06-17T06:15:15.527Z,99.90
2018-06-17T06:17:49.307Z,99.90
2018-06-17T06:20:23.076Z,99.90
2018-06-17T06:22:56.831Z,98.40
2018-06-17T06:25:30.722Z,99.10
2018-06-17T06:28:04.510Z,99.20
2018-06-17T06:30:38.294Z,96.90
2018-06-17T06:33:12.060Z,96.50
2018-06-17T06:35:45.917Z,95.40
2018-06-17T06:38:19.718Z,94.80
2018-06-17T06:40:53.880Z,94.60
2018-06-17T06:43:27.687Z,93.60
2018-06-17T06:46:01.573Z,94.00
2018-06-17T06:48:35.402Z,91.90
2018-06-17T06:51:09.711Z,90.40
2018-06-17T06:53:43.494Z,90.60
2018-06-17T06:56:17.190Z,90.60
2018-06-17T06:58:50.914Z,90.10
2018-06-17T07:01:46.009Z,91.70
2018-06-17T07:04:40.891Z,89.50
2018-06-17T07:07:35.925Z,89.30
2018-06-17T07:10:30.998Z,90.50
2018-06-17T07:13:04.785Z,88.90
2018-06-17T07:15:59.773Z,83.10
2018-06-17T07:18:39.264Z,84.10
2018-06-17T07:23:50.717Z,87.70
2018-06-17T07:26:47.302Z,85.80
2018-06-17T07:29:42.393Z,86.50
2018-06-17T07:32:15.799Z,87.70
2018-06-17T07:34:49.122Z,84.70
2018-06-17T07:37:22.426Z,86.10
2018-06-17T07:41:03.115Z,83.10
2018-06-17T07:43:36.490Z,85.00
2018-06-17T07:46:10.566Z,82.20
2018-06-17T07:50:03.047Z,82.60
2018-06-17T07:52:57.543Z,83.50
2018-06-17T07:55:30.808Z,81.80
2018-06-17T07:58:04.168Z,82.20
2018-06-17T08:00:37.505Z,81.20
2018-06-17T08:03:10.932Z,81.80
2018-06-17T08:05:44.254Z,82.70
2018-06-17T08:08:17.614Z,79.50
2018-06-17T08:10:50.989Z,80.00
2018-06-17T08:13:24.285Z,80.70
2018-06-17T08:15:57.626Z,79.00
2018-06-17T08:18:30.976Z,79.50
2018-06-17T08:21:04.394Z,79.00
2018-06-17T08:23:37.724Z,80.70
2018-06-17T08:26:11.161Z,80.40
2018-06-17T08:28:44.588Z,81.30
2018-06-17T08:31:17.911Z,80.50
2018-06-17T08:33:51.341Z,80.00
2018-06-17T08:36:24.669Z,78.80
2018-06-17T08:38:58.059Z,81.00
2018-06-17T08:41:31.495Z,78.10
2018-06-17T08:44:05.084Z,78.10
2018-06-17T08:46:38.476Z,77.60
2018-06-17T08:49:12.008Z,76.70
2018-06-17T08:51:45.425Z,74.10
2018-06-17T08:54:19.024Z,75.30
2018-06-17T08:56:52.642Z,73.20
2018-06-17T08:59:26.030Z,73.10
2018-06-17T09:02:00.221Z,73.70
2018-06-17T09:04:33.649Z,74.50
2018-06-17T09:07:07.080Z,74.50
2018-06-17T09:09:40.506Z,74.60
2018-06-17T09:12:13.858Z,74.60
2018-06-17T09:14:47.221Z,75.50
2018-06-17T09:17:20.499Z,73.80
2018-06-17T09:19:53.928Z,72.10
2018-06-17T09:22:27.219Z,71.80
2018-06-17T09:25:00.823Z,70.40
2018-06-17T09:27:34.234Z,69.00
2018-06-17T09:30:07.600Z,68.30
2018-06-17T09:32:41.054Z,69.10
2018-06-17T09:35:14.412Z,68.60
2018-06-17T09:37:47.721Z,68.70
2018-06-17T09:40:21.085Z,69.10
2018-06-17T09:42:54.454Z,69.40
2018-06-17T09:45:27.745Z,67.90
2018-06-17T09:48:01.134Z,66.10
2018-06-17T09:53:07.213Z,66.00
2018-06-17T09:55:40.568Z,67.10
2018-06-17T09:58:13.886Z,68.70
2018-06-17T10:00:47.185Z,68.70
2018-06-17T10:03:20.589Z,68.90
2018-06-17T10:05:53.957Z,68.80
2018-06-17T10:08:27.260Z,68.60
2018-06-17T10:11:02.786Z,68.60
2018-06-17T10:13:42.839Z,67.60
2018-06-17T10:16:17.476Z,66.90
2018-06-17T10:18:51.230Z,66.20
2018-06-17T10:21:24.996Z,66.20
2018-06-17T10:23:59.516Z,65.40
2018-06-17T10:26:33.312Z,63.40
2018-06-17T10:29:07.220Z,64.60
2018-06-17T10:31:40.986Z,63.10
2018-06-17T10:34:14.923Z,63.50
2018-06-17T10:36:48.738Z,63.40
2018-06-17T10:39:22.612Z,63.20
2018-06-17T10:41:56.518Z,63.90
2018-06-17T10:44:30.433Z,62.50
2018-06-17T10:47:04.570Z,62.40
2018-06-17T10:49:38.439Z,63.50
2018-06-17T10:52:18.197Z,65.70
2018-06-17T10:54:54.716Z,63.10
2018-06-17T10:57:33.017Z,61.50
2018-06-17T11:00:12.048Z,59.80
2018-06-17T11:02:48.551Z,59.70
2018-06-17T11:05:22.726Z,58.60
2018-06-17T11:07:56.563Z,58.00
2018-06-17T11:10:30.759Z,57.10
2018-06-17T11:13:04.632Z,56.80
2018-06-17T11:15:38.415Z,57.80
2018-06-17T11:18:12.292Z,57.00
2018-06-17T11:20:51.798Z,58.30
2018-06-17T11:23:29.155Z,56.70
2018-06-17T11:26:05.051Z,55.90
2018-06-17T11:28:43.769Z,55.60
2018-06-17T11:31:19.669Z,55.60
2018-06-17T11:33:55.979Z,53.90
2018-06-17T11:36:31.094Z,52.80
2018-06-17T11:39:13.479Z,54.90
2018-06-17T11:41:50.476Z,54.50
2018-06-17T11:44:27.075Z,52.70
2018-06-17T11:47:02.266Z,52.40
2018-06-17T11:49:36.497Z,51.90
2018-06-17T11:52:11.602Z,53.10
2018-06-17T11:54:45.320Z,51.70
2018-06-17T11:57:19.219Z,52.10
2018-06-17T11:59:52.934Z,52.40
2018-06-17T12:02:26.691Z,54.20
2018-06-17T12:05:00.463Z,53.60
2018-06-17T12:07:34.235Z,54.40
2018-06-17T12:10:08.667Z,54.40
2018-06-17T12:12:42.480Z,56.10
2018-06-17T12:15:16.278Z,55.30
2018-06-17T12:17:50.225Z,54.90
2018-06-17T12:20:24.069Z,55.50
2018-06-17T12:22:57.821Z,54.90
2018-06-17T12:25:31.642Z,54.20
2018-06-17T12:28:05.460Z,55.40
2018-06-17T12:30:39.230Z,56.30
2018-06-17T12:33:13.018Z,56.70
2018-06-17T12:35:46.844Z,55.30
2018-06-17T12:38:20.602Z,57.00
2018-06-17T12:40:54.486Z,55.80
2018-06-17T12:43:28.252Z,56.30
2018-06-17T12:46:02.088Z,56.70
2018-06-17T12:48:36.351Z,55.70
2018-06-17T12:51:10.174Z,54.90
2018-06-17T12:53:43.937Z,53.70
2018-06-17T12:56:17.759Z,52.90
2018-06-17T12:58:51.491Z,53.40
2018-06-17T13:01:25.431Z,53.40
2018-06-17T13:03:59.168Z,53.30
2018-06-17T13:06:33.026Z,53.90
2018-06-17T13:11:42.689Z,52.90
2018-06-17T13:14:16.520Z,53.20
2018-06-17T13:16:50.297Z,53.30
2018-06-17T13:19:24.018Z,53.40
2018-06-17T13:21:57.769Z,53.20
2018-06-17T13:27:04.430Z,51.20
2018-06-17T13:29:38.250Z,51.20
2018-06-17T13:32:12.538Z,51.30
2018-06-17T13:34:46.282Z,52.20
2018-06-17T13:37:20.240Z,51.10
2018-06-17T13:39:53.990Z,50.70
2018-06-17T13:42:28.409Z,50.10
2018-06-17T13:45:02.203Z,50.50
2018-06-17T13:50:09.339Z,51.00
2018-06-17T13:52:43.111Z,51.90
2018-06-17T13:55:16.902Z,52.00
2018-06-17T13:57:50.782Z,50.30
2018-06-17T14:00:24.654Z,52.30
2018-06-17T14:02:58.390Z,52.50
2018-06-17T14:05:32.150Z,53.30
2018-06-17T14:08:05.941Z,52.20
2018-06-17T14:10:39.765Z,51.20
2018-06-17T14:13:13.512Z,51.00
2018-06-17T14:15:47.442Z,51.90
2018-06-17T14:18:21.312Z,51.80
2018-06-17T14:20:55.091Z,51.20
2018-06-17T14:23:28.877Z,51.50
2018-06-17T14:26:02.730Z,52.00
2018-06-17T14:28:36.473Z,53.00
2018-06-17T14:31:10.320Z,53.20
2018-06-17T14:33:44.168Z,54.00
2018-06-17T14:36:17.943Z,52.90
2018-06-17T14:38:51.768Z,53.20
2018-06-17T14:41:25.565Z,53.40
2018-06-17T14:44:04.154Z,54.00
2018-06-17T14:46:42.692Z,54.70
2018-06-17T14:49:21.369Z,55.10
2018-06-17T14:51:59.941Z,55.50
2018-06-17T14:54:33.864Z,55.70
2018-06-17T14:57:07.771Z,55.20
2018-06-17T14:59:41.788Z,55.70
2018-06-17T15:02:15.556Z,55.20
2018-06-17T15:04:49.330Z,55.00
2018-06-17T15:07:23.119Z,55.60
2018-06-17T15:09:56.964Z,57.50
2018-06-17T15:12:30.767Z,58.50
2018-06-17T15:15:04.614Z,59.00
2018-06-17T15:17:38.434Z,59.20
2018-06-17T15:20:12.293Z,59.80
2018-06-17T15:22:46.092Z,60.00
2018-06-17T15:25:20.013Z,60.80
2018-06-17T15:27:53.776Z,61.40
2018-06-17T15:30:27.743Z,62.10
2018-06-17T15:33:06.302Z,62.20
2018-06-17T15:35:44.612Z,63.20
2018-06-17T15:38:23.051Z,63.00
2018-06-17T15:41:01.807Z,63.90
2018-06-17T15:43:36.139Z,64.50
2018-06-17T15:46:10.291Z,64.60
2018-06-17T15:48:44.534Z,65.00
2018-06-17T15:51:18.679Z,65.40
2018-06-17T15:53:52.898Z,64.80
2018-06-17T15:56:27.083Z,65.10
2018-06-17T15:59:01.305Z,64.90
2018-06-17T16:01:35.552Z,64.40
2018-06-17T16:04:09.829Z,64.80
2018-06-17T16:06:44.024Z,63.80
2018-06-17T16:09:18.405Z,64.20
2018-06-17T16:11:57.287Z,63.20
2018-06-17T16:14:36.098Z,63.20
2018-06-17T16:17:15.078Z,62.50
2018-06-17T16:19:53.959Z,63.60
2018-06-17T16:22:28.067Z,64.20
2018-06-17T16:25:02.392Z,63.90
2018-06-17T16:27:36.729Z,63.90
2018-06-17T16:30:11.186Z,64.40
2018-06-17T16:32:45.327Z,65.50
2018-06-17T16:35:19.546Z,64.60
2018-06-17T16:37:53.979Z,64.80
2018-06-17T16:40:28.232Z,65.00
2018-06-17T16:43:02.496Z,65.10
2018-06-17T16:45:36.712Z,64.80
2018-06-17T16:48:10.964Z,64.50
2018-06-17T16:50:48.864Z,64.50
2018-06-17T16:53:27.593Z,64.70
2018-06-17T16:56:06.666Z,65.00
2018-06-17T16:58:45.559Z,64.30
2018-06-17T17:01:19.823Z,63.90
2018-06-17T17:03:54.090Z,63.10
2018-06-17T17:06:28.299Z,63.10
2018-06-17T17:09:02.449Z,63.40
2018-06-17T17:11:36.283Z,63.40
2018-06-17T17:14:10.421Z,62.90
2018-06-17T17:16:44.203Z,63.70
2018-06-17T17:19:18.028Z,63.80
2018-06-17T17:21:52.552Z,63.90
2018-06-17T17:24:26.375Z,64.10
2018-06-17T17:27:00.231Z,62.00
2018-06-17T17:29:34.061Z,62.40
2018-06-17T17:32:13.571Z,62.20
2018-06-17T17:34:52.209Z,61.30
2018-06-17T17:37:30.856Z,61.90
2018-06-17T17:40:09.409Z,61.50
2018-06-17T17:42:43.389Z,61.10
2018-06-17T17:45:22.368Z,60.40
2018-06-17T17:47:56.616Z,61.00
2018-06-17T17:50:30.480Z,60.70
2018-06-17T17:53:04.665Z,60.90
2018-06-17T17:55:38.423Z,60.90
2018-06-17T17:58:12.311Z,61.40
2018-06-17T18:00:46.095Z,61.80
2018-06-17T18:03:19.979Z,62.30
2018-06-17T18:05:53.793Z,62.50
2018-06-17T18:08:27.607Z,62.40
2018-06-17T18:11:01.401Z,63.00
2018-06-17T18:13:35.184Z,62.90
2018-06-17T18:16:09.033Z,62.80
2018-06-17T18:18:42.998Z,62.60
2018-06-17T18:21:16.848Z,62.80
2018-06-17T18:23:52.121Z,62.90
2018-06-17T18:26:30.562Z,63.30
2018-06-17T18:29:09.023Z,63.70
2018-06-17T18:31:47.672Z,63.50
2018-06-17T18:34:26.750Z,63.90
2018-06-17T18:37:00.612Z,63.90
2018-06-17T18:39:34.391Z,63.60
2018-06-17T18:42:08.358Z,63.30
2018-06-17T18:44:42.200Z,63.40
2018-06-17T18:47:16.083Z,63.50
2018-06-17T18:49:49.873Z,64.60
2018-06-17T18:52:23.820Z,64.60
2018-06-17T18:54:57.733Z,64.60
2018-06-17T18:57:31.609Z,65.60
2018-06-17T19:00:06.083Z,64.90
2018-06-17T19:02:39.937Z,65.00
2018-06-17T19:05:13.714Z,64.60
2018-06-17T19:07:47.640Z,64.80
2018-06-17T19:10:26.189Z,64.80
2018-06-17T19:13:04.840Z,65.30
2018-06-17T19:15:43.389Z,65.00
2018-06-17T19:18:17.417Z,65.90
2018-06-17T19:20:51.288Z,65.90
2018-06-17T19:23:25.283Z,65.90
2018-06-17T19:25:59.206Z,66.40
2018-06-17T19:28:33.090Z,66.90
2018-06-17T19:31:06.911Z,67.10
2018-06-17T19:33:40.773Z,67.20
2018-06-17T19:36:14.611Z,67.40
2018-06-17T19:38:48.447Z,67.60
2018-06-17T19:41:22.243Z,67.20
2018-06-17T19:43:56.079Z,67.90
2018-06-17T19:46:29.888Z,67.90
2018-06-17T19:51:41.525Z,69.60
2018-06-17T19:54:20.164Z,70.10
2018-06-17T19:56:58.583Z,70.40
2018-06-17T20:00:36.660Z,71.00
2018-06-17T20:03:10.568Z,71.00
2018-06-17T20:05:44.339Z,72.30
2018-06-17T20:08:18.180Z,71.60
2018-06-17T20:10:52.070Z,71.70
2018-06-17T20:13:27.071Z,72.70
2018-06-17T20:16:01.034Z,73.90
2018-06-17T20:18:35.047Z,73.20
2018-06-17T20:21:09.383Z,73.40
2018-06-17T20:23:43.450Z,73.20
2018-06-17T20:26:17.301Z,72.80
2018-06-17T20:28:51.495Z,73.70
2018-06-17T20:31:25.449Z,74.50
2018-06-17T20:34:04.119Z,74.50
2018-06-17T20:36:42.846Z,74.00
2018-06-17T20:39:21.748Z,74.50
2018-06-17T20:42:00.333Z,75.90
2018-06-17T20:44:34.259Z,75.30
2018-06-17T20:47:21.889Z,75.60
2018-06-17T20:50:16.031Z,75.40
2018-06-17T20:52:50.980Z,75.50
2018-06-17T20:55:29.300Z,75.70
2018-06-17T20:58:03.475Z,76.00
2018-06-17T21:00:37.322Z,76.20
2018-06-17T21:03:11.802Z,76.30
2018-06-17T21:05:46.780Z,76.60
2018-06-17T21:08:20.642Z,76.50
2018-06-17T21:10:54.666Z,77.80
2018-06-17T21:13:28.576Z,77.80
2018-06-17T21:16:02.479Z,77.50
2018-06-17T21:18:40.938Z,78.40
2018-06-17T21:21:19.558Z,78.70
2018-06-17T21:23:58.117Z,79.20
2018-06-17T21:26:36.741Z,79.60
2018-06-17T21:29:10.483Z,80.40
2018-06-17T21:31:44.380Z,80.40
2018-06-17T21:34:18.125Z,80.60
2018-06-17T21:36:52.015Z,81.10
2018-06-17T21:39:25.791Z,81.40
2018-06-17T21:41:59.671Z,81.50
2018-06-17T21:44:33.511Z,81.40
2018-06-17T21:47:07.467Z,81.50
2018-06-17T21:49:41.230Z,81.60
2018-06-17T21:52:15.084Z,82.40
2018-06-17T21:54:48.886Z,81.90
2018-06-17T21:57:22.718Z,81.30
2018-06-17T21:59:56.595Z,82.70
2018-06-17T22:02:30.378Z,83.80
2018-06-17T22:05:04.247Z,84.20
2018-06-17T22:07:41.678Z,84.50
2018-06-17T22:10:20.202Z,85.00
2018-06-17T22:12:58.819Z,85.00
2018-06-17T22:15:37.260Z,85.10
2018-06-17T22:18:11.016Z,85.60
2018-06-17T22:20:44.778Z,85.70
2018-06-17T22:23:18.537Z,86.70
2018-06-17T22:25:52.354Z,87.30
2018-06-17T22:28:26.121Z,87.70
2018-06-17T22:30:59.848Z,88.40
2018-06-17T22:33:33.681Z,88.10
2018-06-17T22:36:07.492Z,88.90
2018-06-17T22:38:41.265Z,88.80
2018-06-17T22:41:14.984Z,88.80
2018-06-17T22:43:48.878Z,89.60
2018-06-17T22:46:22.679Z,90.10
2018-06-17T22:48:56.387Z,90.40
2018-06-17T22:51:30.167Z,90.80
2018-06-17T22:54:25.424Z,91.00
2018-06-17T22:57:03.905Z,91.40
2018-06-17T22:59:42.494Z,91.40
2018-06-17T23:02:21.105Z,91.60
2018-06-17T23:04:59.648Z,91.60
2018-06-17T23:07:38.175Z,91.30
2018-06-17T23:10:13.868Z,91.00
2018-06-17T23:12:47.626Z,91.30
2018-06-17T23:15:21.488Z,92.20
2018-06-17T23:17:55.276Z,92.70
2018-06-17T23:20:29.084Z,92.70
2018-06-17T23:25:35.975Z,93.50
2018-06-17T23:28:09.739Z,93.70
2018-06-17T23:30:43.474Z,93.80
2018-06-17T23:33:17.262Z,93.70
2018-06-17T23:35:50.985Z,94.10
2018-06-17T23:38:24.689Z,94.80
2018-06-17T23:40:58.509Z,94.20
2018-06-17T23:43:32.253Z,95.10
2018-06-17T23:46:10.702Z,94.20
2018-06-17T23:48:49.258Z,94.30
2018-06-17T23:51:27.821Z,95.10
2018-06-17T23:54:06.168Z,95.10
2018-06-17T23:56:40.096Z,95.80
2018-06-17T23:59:13.870Z,96.70
